createdAt,value
2023-01-12T00:02:39.507Z,99992.00
2023-01-12T00:07:43.585Z,99987.38
2023-01-12T00:12:46.359Z,99999.31
2023-01-12T00:17:49.096Z,100003.59
2023-01-12T00:22:53.158Z,99998.06
2023-01-12T00:27:55.864Z,100005.69
2023-01-12T00:32:58.595Z,100009.22
2023-01-12T00:38:02.671Z,100025.72
2023-01-12T00:43:22.773Z,100047.69
2023-01-12T00:48:26.486Z,100065.19
2023-01-12T00:53:30.691Z,100062.72
2023-01-12T00:58:33.412Z,100087.28
2023-01-12T01:03:36.598Z,100097.19
2023-01-12T01:08:40.703Z,100102.94
2023-01-12T01:13:44.381Z,100111.88
2023-01-12T01:18:47.094Z,100128.13
2023-01-12T01:23:51.220Z,100119.59
2023-01-12T01:28:53.982Z,100123.34
2023-01-12T01:33:56.768Z,100114.44
2023-01-12T01:39:00.870Z,100101.41
2023-01-12T01:44:05.054Z,100087.31
2023-01-12T01:49:33.334Z,100113.47
2023-01-12T01:54:40.348Z,100101.13
2023-01-12T01:59:46.368Z,100111.81
2023-01-12T02:04:49.253Z,100101.72
2023-01-12T02:09:53.374Z,100100.91
2023-01-12T02:15:14.028Z,100095.66
2023-01-12T02:20:48.503Z,100096.63
2023-01-12T02:26:18.278Z,100087.69
2023-01-12T02:31:46.232Z,100095.94
2023-01-12T02:36:53.573Z,100087.94
2023-01-12T02:42:21.693Z,100088.28
2023-01-12T02:47:30.024Z,100089.63
2023-01-12T02:52:33.415Z,100029.34
2023-01-12T02:57:36.883Z,100030.47
2023-01-12T03:02:40.993Z,100021.91
2023-01-12T03:07:48.165Z,100003.41
2023-01-12T03:12:52.434Z,99996.66
2023-01-12T03:17:59.437Z,100002.03
2023-01-12T03:23:04.325Z,99993.19
2023-01-12T03:28:07.400Z,99983.53
2023-01-12T03:33:12.105Z,99986.03
2023-01-12T03:38:20.541Z,99982.50
2023-01-12T03:43:28.185Z,99979.66
2023-01-12T03:48:36.884Z,99975.22
2023-01-12T03:53:41.411Z,99969.16
2023-01-12T03:58:44.403Z,99973.75
2023-01-12T04:03:48.505Z,99965.81
2023-01-12T04:08:51.183Z,99971.19
2023-01-12T04:13:53.903Z,99970.88
2023-01-12T04:18:58.356Z,99965.56
2023-01-12T04:24:01.440Z,99976.88
2023-01-12T04:29:04.275Z,99987.50
2023-01-12T04:34:08.508Z,99991.78
2023-01-12T04:39:11.445Z,99983.94
2023-01-12T04:44:14.178Z,99983.94
2023-01-12T04:49:18.622Z,99980.28
2023-01-12T04:54:21.321Z,99975.28
2023-01-12T04:59:24.025Z,99880.09
2023-01-12T05:04:28.310Z,99860.00
2023-01-12T05:09:48.482Z,99854.78
2023-01-12T05:14:51.410Z,99823.31
2023-01-12T05:19:55.545Z,99826.59
2023-01-12T05:24:58.393Z,99818.06
2023-01-12T05:30:01.217Z,99800.53
2023-01-12T05:35:06.354Z,99791.06
2023-01-12T05:40:10.461Z,99797.41
2023-01-12T05:45:13.213Z,99782.56
2023-01-12T05:50:17.544Z,99778.16
2023-01-12T05:55:40.518Z,99771.28
2023-01-12T06:00:43.269Z,99765.03
2023-01-12T06:05:53.669Z,99751.91
2023-01-12T06:10:56.558Z,99748.53
2023-01-12T06:16:04.909Z,99737.84
2023-01-12T06:21:10.129Z,99720.22
2023-01-12T06:26:12.847Z,99725.50
2023-01-12T06:31:16.769Z,99711.22
2023-01-12T06:36:20.969Z,99698.00
2023-01-12T06:41:41.205Z,99700.63
2023-01-12T06:46:44.991Z,99672.50
2023-01-12T06:51:51.221Z,99681.03
2023-01-12T06:56:55.290Z,99671.31
2023-01-12T07:01:58.052Z,99658.03
2023-01-12T07:07:02.183Z,99656.25
2023-01-12T07:12:05.625Z,99661.38
2023-01-12T07:17:08.387Z,99648.31
2023-01-12T07:22:12.552Z,99637.78
2023-01-12T07:27:15.298Z,99628.94
2023-01-12T07:32:18.270Z,99608.81
2023-01-12T07:37:22.379Z,99596.66
2023-01-12T07:42:25.134Z,99560.78
2023-01-12T07:47:28.533Z,99567.13
2023-01-12T07:52:32.614Z,99554.88
2023-01-12T07:57:37.173Z,99031.47
2023-01-12T08:02:39.915Z,99015.75
2023-01-12T08:07:44.080Z,99023.84
2023-01-12T08:12:46.911Z,99024.16
2023-01-12T08:17:52.643Z,99032.31
2023-01-12T08:23:00.235Z,99025.56
2023-01-12T08:28:06.657Z,99026.72
2023-01-12T08:33:09.445Z,99029.13
2023-01-12T08:38:13.627Z,99030.31
2023-01-12T08:43:37.323Z,99021.59
2023-01-12T08:48:40.132Z,99029.75
2023-01-12T08:53:44.247Z,99034.19
2023-01-12T08:58:47.337Z,99027.16
2023-01-12T09:03:50.237Z,99043.50
2023-01-12T09:08:56.531Z,99047.69
2023-01-12T09:13:59.236Z,99043.19
2023-01-12T09:19:02.396Z,99059.78
2023-01-12T09:24:07.226Z,99066.84
2023-01-12T09:29:11.355Z,99084.38
2023-01-12T09:34:14.638Z,99103.91
2023-01-12T09:39:27.409Z,99117.19
2023-01-12T09:44:52.191Z,99120.88
2023-01-12T09:50:08.089Z,99142.13
2023-01-12T09:55:16.626Z,99149.25
2023-01-12T10:00:20.888Z,99175.75
2023-01-12T10:05:40.418Z,99189.09
2023-01-12T10:10:51.526Z,99196.28
2023-01-12T10:15:58.278Z,99142.06
2023-01-12T10:21:01.480Z,99145.16
2023-01-12T10:26:14.656Z,99175.91
2023-01-12T10:31:21.627Z,99177.75
2023-01-12T10:36:25.384Z,99195.22
2023-01-12T10:41:30.315Z,99217.06
2023-01-12T10:46:33.828Z,99227.66
2023-01-12T10:51:37.142Z,99255.56
2023-01-12T10:56:43.991Z,99306.66
2023-01-12T11:01:48.517Z,99324.16
2023-01-12T11:07:02.782Z,99203.25
2023-01-12T11:12:21.716Z,99296.31
2023-01-12T11:17:33.780Z,99279.78
2023-01-12T11:22:38.507Z,99312.28
2023-01-12T11:27:45.995Z,99358.63
2023-01-12T11:32:53.629Z,99293.91
2023-01-12T11:37:59.509Z,99326.44
2023-01-12T11:43:31.945Z,99410.63
2023-01-12T11:48:39.821Z,99479.81
2023-01-12T11:53:42.759Z,99513.13
2023-01-12T11:58:55.370Z,99387.06
2023-01-12T12:04:01.466Z,99233.84
2023-01-12T12:09:13.695Z,99227.81
2023-01-12T12:14:28.997Z,99209.47
2023-01-12T12:19:37.527Z,98753.16
2023-01-12T12:25:00.984Z,98764.47
2023-01-12T12:30:24.813Z,98770.72
2023-01-12T12:35:44.839Z,98462.34
2023-01-12T12:41:13.610Z,98457.97
2023-01-12T12:46:24.134Z,98431.69
2023-01-12T12:51:28.022Z,98481.63
2023-01-12T12:56:32.267Z,98486.00
2023-01-12T13:01:43.615Z,98694.53
2023-01-12T13:06:48.609Z,98767.25
2023-01-12T13:11:54.041Z,98857.53
2023-01-12T13:17:01.223Z,98903.94
2023-01-12T13:22:28.098Z,99038.03
2023-01-12T13:27:50.516Z,99115.16
2023-01-12T13:33:01.715Z,99213.28
2023-01-12T13:38:11.433Z,99268.53
2023-01-12T13:43:19.630Z,99346.56
2023-01-12T13:48:24.313Z,99401.72
2023-01-12T13:53:29.241Z,99449.97
2023-01-12T13:58:40.015Z,99513.09
2023-01-12T14:03:57.067Z,99570.03
2023-01-12T14:09:08.698Z,99616.53
2023-01-12T14:14:45.067Z,99669.16
2023-01-12T14:19:51.754Z,99701.59
2023-01-12T14:24:54.478Z,99764.91
2023-01-12T14:29:57.209Z,100092.19
2023-01-12T14:35:01.311Z,100067.47
2023-01-12T14:40:04.326Z,100079.06
2023-01-12T14:45:40.146Z,100067.00
2023-01-12T14:50:59.668Z,100039.75
2023-01-12T14:56:10.788Z,99598.03
2023-01-12T15:01:13.828Z,99567.13
2023-01-12T15:06:18.037Z,99555.59
2023-01-12T15:11:30.479Z,99564.34
2023-01-12T15:17:02.497Z,99578.34
2023-01-12T15:22:27.574Z,99580.88
2023-01-12T15:27:30.914Z,99579.88
2023-01-12T15:32:46.763Z,99594.69
2023-01-12T15:37:51.651Z,99626.19
2023-01-12T15:42:55.653Z,99651.50
2023-01-12T15:47:58.379Z,99690.88
2023-01-12T15:53:02.687Z,99723.34
2023-01-12T15:58:05.413Z,99726.81
2023-01-12T16:03:23.994Z,99762.72
2023-01-12T16:08:36.029Z,99767.97
2023-01-12T16:13:39.057Z,99783.81
2023-01-12T16:18:41.830Z,99782.03
2023-01-12T16:23:45.997Z,99781.19
2023-01-12T16:28:48.686Z,99815.31
2023-01-12T16:33:51.536Z,99830.19
2023-01-12T16:38:55.792Z,99936.16
2023-01-12T16:43:59.405Z,99965.97
2023-01-12T16:49:03.894Z,99972.19
2023-01-12T16:54:08.026Z,99944.22
2023-01-12T16:59:10.757Z,99951.91
2023-01-12T17:04:13.632Z,99958.06
2023-01-12T17:09:18.604Z,99981.69
2023-01-12T17:14:25.053Z,99988.63
2023-01-12T17:19:28.297Z,99950.88
2023-01-12T17:24:32.826Z,99959.66
2023-01-12T17:29:35.787Z,99962.19
2023-01-12T17:34:40.135Z,99994.75
2023-01-12T17:39:44.348Z,100006.94
2023-01-12T17:44:47.167Z,100021.03
2023-01-12T17:49:49.934Z,100019.19
2023-01-12T17:54:54.235Z,100043.75
2023-01-12T17:59:57.104Z,100059.50
2023-01-12T18:04:59.903Z,100054.13
2023-01-12T18:10:04.211Z,100064.59
2023-01-12T18:15:08.560Z,100098.72
2023-01-12T18:20:11.968Z,100094.28
2023-01-12T18:25:16.205Z,100083.91
2023-01-12T18:30:19.284Z,100070.75
2023-01-12T18:35:22.168Z,100063.81
2023-01-12T18:40:26.272Z,100067.28
2023-01-12T18:45:29.098Z,100072.41
2023-01-12T18:50:49.768Z,100116.28
2023-01-12T18:55:56.933Z,100063.56
2023-01-12T19:01:00.878Z,100061.84
2023-01-12T19:06:21.925Z,100088.19
2023-01-12T19:11:26.312Z,100081.09
2023-01-12T19:16:46.610Z,100112.75
2023-01-12T19:22:06.758Z,100142.63
2023-01-12T19:27:31.072Z,100175.06
2023-01-12T19:32:33.847Z,100185.59
2023-01-12T19:37:36.655Z,100216.38
2023-01-12T19:42:58.106Z,100235.63
2023-01-12T19:48:00.779Z,100262.81
2023-01-12T19:53:03.907Z,100268.06
2023-01-12T19:58:09.159Z,100740.53
2023-01-12T20:03:12.694Z,100722.28
2023-01-12T20:08:16.006Z,100114.03
2023-01-12T20:13:20.114Z,100414.72
2023-01-12T20:18:22.889Z,100462.03
2023-01-12T20:23:25.645Z,100455.00
2023-01-12T20:28:29.752Z,100448.00
2023-01-12T20:33:32.455Z,100462.94
2023-01-12T20:38:35.205Z,100442.03
2023-01-12T20:43:39.290Z,100423.69
2023-01-12T20:48:42.340Z,100385.09
2023-01-12T20:53:45.058Z,100353.59
2023-01-12T20:58:49.158Z,100320.25
2023-01-12T21:03:52.971Z,100313.38
2023-01-12T21:08:55.695Z,100261.84
2023-01-12T21:13:59.807Z,100203.06
2023-01-12T21:19:03.329Z,100150.66
2023-01-12T21:24:06.629Z,100069.00
2023-01-12T21:29:10.737Z,100011.06
2023-01-12T21:34:13.557Z,99948.75
2023-01-12T21:39:16.373Z,99910.88
2023-01-12T21:44:20.480Z,99906.19
2023-01-12T21:49:23.457Z,99931.53
2023-01-12T21:54:26.219Z,99980.41
2023-01-12T21:59:30.303Z,100025.09
2023-01-12T22:04:33.169Z,100066.31
2023-01-12T22:09:35.923Z,100088.25
2023-01-12T22:14:40.070Z,100083.13
2023-01-12T22:19:43.045Z,100064.88
2023-01-12T22:24:45.753Z,100032.44
2023-01-12T22:29:49.838Z,99995.72
2023-01-12T22:34:52.518Z,99967.75
2023-01-12T22:39:55.721Z,99939.69
2023-01-12T22:44:59.846Z,99915.22
2023-01-12T22:50:02.582Z,99873.09
2023-01-12T22:55:06.030Z,99840.91
2023-01-12T23:00:12.683Z,99797.00
2023-01-12T23:05:15.717Z,99761.13
2023-01-12T23:10:19.237Z,99749.72
2023-01-12T23:15:23.467Z,99741.75
2023-01-12T23:20:26.518Z,99749.63
2023-01-12T23:25:29.874Z,99754.03
2023-01-12T23:30:35.923Z,99751.41
2023-01-12T23:35:39.692Z,99757.53
2023-01-12T23:40:42.599Z,99788.13
2023-01-12T23:45:46.890Z,99823.84
2023-01-12T23:50:49.870Z,99859.81
2023-01-12T23:55:52.815Z,99966.03
